createdAt,value
2023-01-13T00:00:20.380Z,96498.78
2023-01-13T00:02:46.864Z,96501.53
2023-01-13T00:05:13.235Z,96491.47
2023-01-13T00:07:43.224Z,96479.38
2023-01-13T00:10:10.929Z,96482.94
2023-01-13T00:12:41.792Z,96472.50
2023-01-13T00:15:09.418Z,96473.56
2023-01-13T00:17:36.136Z,96476.88
2023-01-13T00:20:02.601Z,96478.16
2023-01-13T00:22:29.285Z,96465.38
2023-01-13T00:24:58.050Z,96453.31
2023-01-13T00:27:25.220Z,96450.34
2023-01-13T00:29:51.539Z,96449.50
2023-01-13T00:32:17.849Z,96444.06
2023-01-13T00:34:44.169Z,96447.84
2023-01-13T00:37:12.899Z,96445.72
2023-01-13T00:39:39.212Z,96449.50
2023-01-13T00:42:24.016Z,96455.91
2023-01-13T00:44:50.321Z,96454.75
2023-01-13T00:47:16.855Z,96460.06
2023-01-13T00:49:43.169Z,96447.28
2023-01-13T00:52:09.480Z,96465.88
2023-01-13T00:54:35.791Z,96445.25
2023-01-13T00:57:02.283Z,96446.06
2023-01-13T00:59:28.587Z,96448.56
2023-01-13T01:01:55.146Z,96445.63
2023-01-13T01:04:21.542Z,96438.97
2023-01-13T01:06:47.980Z,96438.66
2023-01-13T01:09:15.926Z,96457.63
2023-01-13T01:11:43.143Z,96455.47
2023-01-13T01:14:12.302Z,96453.81
2023-01-13T01:16:40.667Z,96459.97
2023-01-13T01:19:07.813Z,96456.41
2023-01-13T01:21:34.551Z,96455.34
2023-01-13T01:24:02.561Z,96458.91
2023-01-13T01:26:30.018Z,96461.53
2023-01-13T01:28:56.754Z,96467.09
2023-01-13T01:31:26.317Z,96461.03
2023-01-13T01:33:54.059Z,96465.19
2023-01-13T01:36:22.076Z,96465.34
2023-01-13T01:38:49.798Z,96453.44
2023-01-13T01:41:22.208Z,96455.59
2023-01-13T01:43:59.393Z,96456.06
2023-01-13T01:46:40.587Z,96453.00
2023-01-13T01:49:27.826Z,96439.59
2023-01-13T01:52:05.878Z,96451.09
2023-01-13T01:55:04.671Z,96436.25
2023-01-13T01:57:37.026Z,96449.31
2023-01-13T02:00:04.803Z,96452.38
2023-01-13T02:02:31.776Z,96453.09
2023-01-13T02:04:59.119Z,96451.19
2023-01-13T02:07:31.812Z,96454.63
2023-01-13T02:10:02.689Z,96439.59
2023-01-13T02:12:29.279Z,96441.25
2023-01-13T02:14:59.418Z,96436.97
2023-01-13T02:17:59.050Z,96441.47
2023-01-13T02:21:01.386Z,96427.22
2023-01-13T02:23:52.265Z,96428.16
2023-01-13T02:26:45.008Z,96442.88
2023-01-13T02:30:08.191Z,96449.53
2023-01-13T02:32:44.374Z,96431.63
2023-01-13T02:35:22.539Z,96431.13
2023-01-13T02:37:50.006Z,96438.84
2023-01-13T02:40:37.103Z,96428.13
2023-01-13T02:43:33.285Z,96438.09
2023-01-13T02:46:14.420Z,96434.91
2023-01-13T02:48:44.448Z,96441.31
2023-01-13T02:51:16.047Z,96432.63
2023-01-13T02:53:50.694Z,96443.41
2023-01-13T02:56:17.935Z,96431.81
2023-01-13T02:58:46.779Z,96485.00
2023-01-13T03:01:13.246Z,96434.28
2023-01-13T03:03:39.698Z,96471.34
2023-01-13T03:06:37.037Z,96436.13
2023-01-13T03:09:15.529Z,96451.28
2023-01-13T03:12:00.899Z,96435.41
2023-01-13T03:14:33.682Z,96452.84
2023-01-13T03:17:28.957Z,96450.97
2023-01-13T03:20:18.498Z,96455.47
2023-01-13T03:23:00.948Z,96455.09
2023-01-13T03:25:31.970Z,96465.91
2023-01-13T03:28:09.761Z,96444.91
2023-01-13T03:30:44.591Z,96440.31
2023-01-13T03:33:17.915Z,96439.59
2023-01-13T03:35:48.124Z,96440.03
2023-01-13T03:38:21.721Z,96432.09
2023-01-13T03:40:53.490Z,96425.91
2023-01-13T03:43:49.451Z,96428.16
2023-01-13T03:46:23.210Z,96419.16
2023-01-13T03:48:54.665Z,96419.88
2023-01-13T03:51:25.261Z,96420.81
2023-01-13T03:53:57.870Z,96424.75
2023-01-13T03:56:33.944Z,96458.78
2023-01-13T03:59:04.974Z,96420.34
2023-01-13T04:02:01.220Z,96427.94
2023-01-13T04:04:39.118Z,96414.06
2023-01-13T04:07:08.438Z,96420.59
2023-01-13T04:09:51.335Z,96404.00
2023-01-13T04:12:49.083Z,96412.41
2023-01-13T04:15:24.098Z,96432.22
2023-01-13T04:17:51.586Z,96408.28
2023-01-13T04:20:17.992Z,96405.53
2023-01-13T04:22:44.340Z,96408.13
2023-01-13T04:25:11.366Z,96408.97
2023-01-13T04:27:37.740Z,96411.09
2023-01-13T04:30:05.371Z,96400.88
2023-01-13T04:32:31.734Z,96402.56
2023-01-13T04:34:58.072Z,96425.44
2023-01-13T04:37:24.424Z,96399.25
2023-01-13T04:39:50.807Z,96409.69
2023-01-13T04:42:17.138Z,96403.78
2023-01-13T04:44:43.467Z,96404.00
2023-01-13T04:47:09.807Z,96397.81
2023-01-13T04:49:36.131Z,96406.38
2023-01-13T04:52:03.758Z,96405.16
2023-01-13T04:54:30.087Z,96395.94
2023-01-13T04:56:56.417Z,96405.19
2023-01-13T04:59:22.765Z,96417.03
2023-01-13T05:01:49.208Z,96410.38
2023-01-13T05:04:16.881Z,96397.38
2023-01-13T05:06:43.239Z,96398.66
2023-01-13T05:09:11.560Z,96400.69
2023-01-13T05:11:56.762Z,96415.38
2023-01-13T05:14:41.583Z,96411.94
2023-01-13T05:17:09.489Z,96404.22
2023-01-13T05:19:40.719Z,96403.28
2023-01-13T05:22:25.756Z,96396.66
2023-01-13T05:25:10.658Z,96403.06
2023-01-13T05:27:37.019Z,96385.28
2023-01-13T05:30:04.120Z,96379.81
2023-01-13T05:32:30.528Z,96372.13
2023-01-13T05:34:57.165Z,96377.72
2023-01-13T05:37:24.229Z,96407.53
2023-01-13T05:40:08.872Z,96383.16
2023-01-13T05:42:53.794Z,96387.06
2023-01-13T05:45:20.129Z,96401.63
2023-01-13T05:47:46.471Z,96390.84
2023-01-13T05:50:12.941Z,96422.97
2023-01-13T05:52:39.316Z,96384.09
2023-01-13T05:55:05.992Z,96416.22
2023-01-13T05:57:32.294Z,96380.78
2023-01-13T05:59:58.629Z,96406.13
2023-01-13T06:02:26.437Z,96400.31
2023-01-13T06:04:52.985Z,96397.59
2023-01-13T06:07:19.426Z,96394.84
2023-01-13T06:09:45.752Z,96394.75
2023-01-13T06:12:12.673Z,96395.00
2023-01-13T06:14:41.702Z,96391.19
2023-01-13T06:17:13.036Z,96391.91
2023-01-13T06:19:40.531Z,96381.47
2023-01-13T06:22:17.201Z,96393.56
2023-01-13T06:24:48.263Z,96397.34
2023-01-13T06:27:17.481Z,96390.50
2023-01-13T06:29:43.796Z,96396.53
2023-01-13T06:32:16.398Z,96393.09
2023-01-13T06:34:46.465Z,96392.63
2023-01-13T06:37:15.199Z,96375.66
2023-01-13T06:39:42.328Z,96389.19
2023-01-13T06:42:27.641Z,96388.13
2023-01-13T06:44:53.959Z,96383.88
2023-01-13T06:47:22.277Z,96382.22
2023-01-13T06:49:48.863Z,96380.66
2023-01-13T06:52:15.225Z,96380.06
2023-01-13T06:54:41.560Z,96367.84
2023-01-13T06:57:07.997Z,96374.38
2023-01-13T06:59:35.239Z,96365.59
2023-01-13T07:02:02.420Z,96388.59
2023-01-13T07:04:28.862Z,96375.31
2023-01-13T07:06:55.338Z,96381.03
2023-01-13T07:09:21.785Z,96377.47
2023-01-13T07:11:48.161Z,96386.22
2023-01-13T07:14:33.497Z,96390.25
2023-01-13T07:16:59.838Z,96376.25
2023-01-13T07:19:26.180Z,96373.66
2023-01-13T07:21:53.206Z,96388.13
2023-01-13T07:24:20.021Z,96393.59
2023-01-13T07:26:46.457Z,96397.16
2023-01-13T07:29:13.045Z,96387.19
2023-01-13T07:31:39.904Z,96393.22
2023-01-13T07:34:06.934Z,96397.84
2023-01-13T07:36:33.820Z,96407.91
2023-01-13T07:39:00.259Z,96410.41
2023-01-13T07:41:45.197Z,96404.00
2023-01-13T07:44:11.610Z,96392.84
2023-01-13T07:46:38.785Z,96402.31
2023-01-13T07:49:05.613Z,96406.63
2023-01-13T07:51:32.323Z,96406.28
2023-01-13T07:53:58.641Z,96402.47
2023-01-13T07:56:24.990Z,96407.34
2023-01-13T07:58:52.852Z,96404.22
2023-01-13T08:01:20.037Z,96399.25
2023-01-13T08:03:46.634Z,96407.69
2023-01-13T08:06:13.967Z,96405.66
2023-01-13T08:08:40.316Z,96408.97
2023-01-13T08:11:08.394Z,96411.34
2023-01-13T08:13:34.797Z,96393.69
2023-01-13T08:16:04.513Z,96398.78
2023-01-13T08:18:33.646Z,96411.56
2023-01-13T08:21:06.171Z,96408.97
2023-01-13T08:23:32.537Z,96400.44
2023-01-13T08:26:17.047Z,96416.44
2023-01-13T08:28:44.138Z,96394.78
2023-01-13T08:31:13.125Z,96401.28
2023-01-13T08:33:40.135Z,96396.19
2023-01-13T08:36:09.121Z,96390.13
2023-01-13T08:38:37.246Z,96405.75
2023-01-13T08:41:15.578Z,96406.72
2023-01-13T08:43:41.909Z,96400.56
2023-01-13T08:46:08.497Z,96409.91
2023-01-13T08:48:35.162Z,96404.50
2023-01-13T08:51:06.809Z,96400.31
2023-01-13T08:53:33.251Z,96409.78
2023-01-13T08:55:59.633Z,96416.06
2023-01-13T08:58:26.156Z,96402.22
2023-01-13T09:00:52.551Z,96416.06
2023-01-13T09:03:18.965Z,96409.22
2023-01-13T09:05:45.334Z,96426.03
2023-01-13T09:08:12.494Z,96427.69
2023-01-13T09:10:40.320Z,96423.44
2023-01-13T09:13:12.596Z,96425.00
2023-01-13T09:15:44.361Z,96423.94
2023-01-13T09:18:11.963Z,96409.94
2023-01-13T09:20:38.808Z,96417.53
2023-01-13T09:23:06.941Z,96399.00
2023-01-13T09:25:36.712Z,96406.13
2023-01-13T09:28:04.853Z,96419.75
2023-01-13T09:30:31.279Z,96419.13
2023-01-13T09:33:18.068Z,96425.78
2023-01-13T09:35:44.928Z,96434.44
2023-01-13T09:38:11.270Z,96425.41
2023-01-13T09:40:41.374Z,96438.34
2023-01-13T09:43:39.489Z,96445.25
2023-01-13T09:46:34.370Z,96439.06
2023-01-13T09:49:03.450Z,96455.66
2023-01-13T09:51:40.816Z,96457.25
2023-01-13T09:54:16.412Z,96443.69
2023-01-13T09:56:42.965Z,96473.53
2023-01-13T09:59:11.978Z,96437.44
2023-01-13T10:01:59.369Z,96447.41
2023-01-13T10:04:26.663Z,96442.44
2023-01-13T10:06:57.641Z,96439.09
2023-01-13T10:09:31.051Z,96448.38
2023-01-13T10:12:18.459Z,96462.44
2023-01-13T10:14:52.905Z,96458.06
2023-01-13T10:17:34.868Z,96475.69
2023-01-13T10:20:07.192Z,96501.53
2023-01-13T10:22:42.633Z,96490.53
2023-01-13T10:25:42.782Z,96498.16
2023-01-13T10:28:12.685Z,96523.44
2023-01-13T10:30:44.633Z,96516.31
2023-01-13T10:33:17.405Z,96512.16
2023-01-13T10:35:54.999Z,96525.19
2023-01-13T10:38:25.936Z,96503.09
2023-01-13T10:40:58.588Z,96522.19
2023-01-13T10:43:26.229Z,96495.75
2023-01-13T10:46:17.584Z,96516.59
2023-01-13T10:48:46.649Z,96568.53
2023-01-13T10:51:25.154Z,96537.72
2023-01-13T10:53:57.643Z,96511.63
2023-01-13T10:56:27.560Z,96524.69
2023-01-13T10:59:09.949Z,96506.56
2023-01-13T11:01:36.998Z,96536.16
2023-01-13T11:04:26.529Z,96537.94
2023-01-13T11:06:52.978Z,96526.06
2023-01-13T11:09:21.043Z,96534.38
2023-01-13T11:11:49.539Z,96528.91
2023-01-13T11:14:39.436Z,96527.22
2023-01-13T11:17:21.716Z,96501.38
2023-01-13T11:19:54.003Z,96511.81
2023-01-13T11:22:26.417Z,96509.09
2023-01-13T11:25:05.135Z,96507.56
2023-01-13T11:27:52.292Z,96504.41
2023-01-13T11:30:39.883Z,96503.69
2023-01-13T11:33:15.453Z,96467.53
2023-01-13T11:35:58.034Z,96494.13
2023-01-13T11:38:42.700Z,96505.19
2023-01-13T11:41:19.027Z,96503.63
2023-01-13T11:43:59.554Z,96498.63
2023-01-13T11:46:27.815Z,96496.97
2023-01-13T11:48:56.590Z,96492.22
2023-01-13T11:51:33.401Z,96512.16
2023-01-13T11:54:27.061Z,96482.03
2023-01-13T11:57:17.775Z,96476.19
2023-01-13T11:59:50.198Z,96488.56
2023-01-13T12:02:45.684Z,96505.16
2023-01-13T12:05:29.016Z,96496.59
2023-01-13T12:08:46.960Z,96490.91
2023-01-13T12:11:31.105Z,96489.47
2023-01-13T12:14:24.519Z,96492.22
2023-01-13T12:16:51.109Z,96495.31
2023-01-13T12:19:30.133Z,96508.34
2023-01-13T12:22:05.494Z,96515.69
2023-01-13T12:25:10.979Z,96522.69
2023-01-13T12:27:54.980Z,96509.28
2023-01-13T12:30:27.149Z,96499.81
2023-01-13T12:32:59.674Z,96498.59
2023-01-13T12:35:31.772Z,96496.69
2023-01-13T12:38:22.931Z,96505.31
2023-01-13T12:41:10.190Z,96490.97
2023-01-13T12:43:57.034Z,96509.22
2023-01-13T12:46:23.357Z,96496.47
2023-01-13T12:48:59.173Z,96513.28
2023-01-13T12:51:33.259Z,96503.81
2023-01-13T12:54:25.480Z,96508.25
2023-01-13T12:56:53.868Z,96508.72
2023-01-13T12:59:20.197Z,96519.53
2023-01-13T13:01:48.794Z,96513.00
2023-01-13T13:04:49.399Z,96510.75
2023-01-13T13:07:18.534Z,96513.00
2023-01-13T13:09:51.274Z,96511.13
2023-01-13T13:13:07.076Z,96496.59
2023-01-13T13:15:35.455Z,96486.28
2023-01-13T13:18:20.877Z,96485.75
2023-01-13T13:21:09.381Z,96492.25
2023-01-13T13:23:50.741Z,96505.06
2023-01-13T13:26:26.150Z,96501.00
2023-01-13T13:29:06.723Z,96483.13
2023-01-13T13:31:53.249Z,96489.16
2023-01-13T13:34:33.783Z,96506.25
2023-01-13T13:37:07.950Z,96503.06
2023-01-13T13:39:53.632Z,96504.13
2023-01-13T13:42:43.502Z,96505.91
2023-01-13T13:45:40.093Z,96519.94
2023-01-13T13:48:26.933Z,96521.78
2023-01-13T13:51:03.766Z,96517.16
2023-01-13T13:53:34.387Z,96508.88
2023-01-13T13:56:05.460Z,96512.97
2023-01-13T13:58:35.426Z,96518.72
2023-01-13T14:01:03.702Z,96513.56
2023-01-13T14:03:39.036Z,96529.00
2023-01-13T14:06:07.782Z,96527.63
2023-01-13T14:08:39.456Z,96526.94
2023-01-13T14:11:28.878Z,96522.34
2023-01-13T14:14:14.311Z,96541.25
2023-01-13T14:16:41.107Z,96537.69
2023-01-13T14:19:25.156Z,96543.16
2023-01-13T14:21:51.525Z,96552.63
2023-01-13T14:24:20.471Z,96565.41
2023-01-13T14:26:51.736Z,96565.78
2023-01-13T14:29:23.551Z,96567.97
2023-01-13T14:31:52.486Z,96580.03
2023-01-13T14:34:32.632Z,96593.72
2023-01-13T14:37:00.553Z,96590.97
2023-01-13T14:39:39.831Z,96591.78
2023-01-13T14:42:12.508Z,96590.53
2023-01-13T14:44:45.070Z,96589.94
2023-01-13T14:47:20.124Z,96583.56
2023-01-13T14:50:07.564Z,96598.31
2023-01-13T14:52:36.416Z,96591.91
2023-01-13T14:55:05.912Z,96592.66
2023-01-13T14:57:41.253Z,96594.94
2023-01-13T15:00:13.761Z,96594.19
2023-01-13T15:02:53.430Z,96592.94
2023-01-13T15:05:19.813Z,96636.56
2023-01-13T15:07:52.640Z,96675.91
2023-01-13T15:10:25.522Z,96659.41
2023-01-13T15:12:53.925Z,96670.22
2023-01-13T15:15:23.911Z,96671.53
2023-01-13T15:17:51.024Z,96678.66
2023-01-13T15:20:19.444Z,96691.34
2023-01-13T15:22:46.973Z,96688.53
2023-01-13T15:25:14.799Z,96685.25
2023-01-13T15:27:44.017Z,96685.41
2023-01-13T15:30:15.851Z,96679.94
2023-01-13T15:32:42.834Z,96715.41
2023-01-13T15:35:19.807Z,96725.66
2023-01-13T15:37:47.709Z,96748.34
2023-01-13T15:40:19.816Z,96747.50
2023-01-13T15:43:04.921Z,96761.84
2023-01-13T15:45:51.273Z,96756.13
2023-01-13T15:48:20.092Z,96745.91
2023-01-13T15:50:46.635Z,96747.28
2023-01-13T15:53:14.486Z,96755.13
2023-01-13T15:55:43.552Z,96764.66
2023-01-13T15:58:12.650Z,96765.03
2023-01-13T16:00:39.792Z,96757.03
2023-01-13T16:03:06.446Z,96768.38
2023-01-13T16:05:32.880Z,96767.31
2023-01-13T16:07:59.220Z,96770.69
2023-01-13T16:10:27.855Z,96778.81
2023-01-13T16:12:58.164Z,96778.56
2023-01-13T16:15:25.815Z,96782.00
2023-01-13T16:18:03.827Z,96778.16
2023-01-13T16:20:30.616Z,96786.56
2023-01-13T16:22:57.011Z,96778.38
2023-01-13T16:25:26.132Z,96787.75
2023-01-13T16:27:52.872Z,96789.81
2023-01-13T16:30:21.693Z,96780.00
2023-01-13T16:32:48.127Z,96771.28
2023-01-13T16:35:14.495Z,96776.31
2023-01-13T16:37:40.998Z,96782.13
2023-01-13T16:40:07.869Z,96774.53
2023-01-13T16:42:34.191Z,96781.25
2023-01-13T16:45:06.960Z,96784.09
2023-01-13T16:47:34.049Z,96783.38
2023-01-13T16:50:00.432Z,96790.47
2023-01-13T16:52:26.807Z,96792.03
2023-01-13T16:54:53.124Z,96794.66
2023-01-13T16:57:19.451Z,96796.28
2023-01-13T16:59:45.801Z,96801.50
2023-01-13T17:02:15.004Z,96804.84
2023-01-13T17:04:41.355Z,96811.59
2023-01-13T17:07:08.375Z,96804.19
2023-01-13T17:09:34.799Z,96813.44
2023-01-13T17:12:01.394Z,96829.47
2023-01-13T17:14:27.808Z,96834.91
2023-01-13T17:16:57.012Z,96820.66
2023-01-13T17:19:23.903Z,96830.09
2023-01-13T17:21:51.016Z,96827.59
2023-01-13T17:24:17.355Z,96837.81
2023-01-13T17:26:48.798Z,96831.28
2023-01-13T17:29:18.771Z,96812.50
2023-01-13T17:31:45.184Z,96820.13
2023-01-13T17:34:12.302Z,96830.00
2023-01-13T17:36:38.867Z,96824.56
2023-01-13T17:39:05.320Z,96829.19
2023-01-13T17:41:31.743Z,96837.09
2023-01-13T17:43:58.104Z,96825.84
2023-01-13T17:46:24.499Z,96842.00
2023-01-13T17:48:52.622Z,96841.25
2023-01-13T17:51:20.110Z,96846.28
2023-01-13T17:53:46.702Z,96840.88
2023-01-13T17:56:15.019Z,96843.19
2023-01-13T17:58:41.906Z,96851.94
2023-01-13T18:01:14.783Z,96856.94
2023-01-13T18:03:41.845Z,96867.66
2023-01-13T18:06:14.323Z,96873.41
2023-01-13T18:08:40.762Z,96867.66
2023-01-13T18:11:07.101Z,96878.38
2023-01-13T18:13:35.027Z,96874.72
2023-01-13T18:16:13.187Z,96881.09
2023-01-13T18:18:42.585Z,96882.13
2023-01-13T18:21:46.000Z,96881.09
2023-01-13T18:24:33.630Z,96897.66
2023-01-13T18:27:19.006Z,96891.22
2023-01-13T18:29:46.321Z,96889.03
2023-01-13T18:32:13.090Z,96893.84
2023-01-13T18:34:39.959Z,96899.69
2023-01-13T18:37:08.774Z,96901.13
2023-01-13T18:39:37.280Z,96902.94
2023-01-13T18:42:23.462Z,96945.34
2023-01-13T18:44:49.854Z,96910.53
2023-01-13T18:47:16.252Z,96915.34
2023-01-13T18:49:42.614Z,96921.34
2023-01-13T18:52:09.051Z,96927.50
2023-01-13T18:54:35.549Z,96934.69
2023-01-13T18:57:02.749Z,96937.63
2023-01-13T18:59:29.512Z,96945.13
2023-01-13T19:01:56.010Z,96938.47
2023-01-13T19:04:22.478Z,96939.09
2023-01-13T19:06:51.853Z,96931.59
2023-01-13T19:09:22.641Z,96937.00
2023-01-13T19:11:50.371Z,96945.97
2023-01-13T19:14:33.914Z,96932.31
2023-01-13T19:17:02.159Z,96937.31
2023-01-13T19:19:30.036Z,96931.69
2023-01-13T19:21:56.433Z,96935.34
2023-01-13T19:24:25.856Z,96938.56
2023-01-13T19:26:53.346Z,96964.63
2023-01-13T19:29:19.863Z,96979.44
2023-01-13T19:31:46.228Z,97004.16
2023-01-13T19:34:12.624Z,96996.47
2023-01-13T19:36:39.162Z,97007.63
2023-01-13T19:39:05.648Z,97030.56
2023-01-13T19:41:52.971Z,97019.44
2023-01-13T19:44:37.785Z,97042.94
2023-01-13T19:47:04.314Z,97039.56
2023-01-13T19:49:30.672Z,97057.78
2023-01-13T19:51:57.065Z,97034.22
2023-01-13T19:54:23.771Z,97036.53
2023-01-13T19:56:50.275Z,97034.41
2023-01-13T19:59:21.988Z,97023.34
2023-01-13T20:01:48.641Z,97030.22
2023-01-13T20:04:16.994Z,97026.03
2023-01-13T20:06:43.881Z,97028.47
2023-01-13T20:09:11.290Z,97032.28
2023-01-13T20:11:37.855Z,97040.19
2023-01-13T20:14:04.383Z,97053.63
2023-01-13T20:16:32.976Z,97051.88
2023-01-13T20:18:59.529Z,97053.59
2023-01-13T20:21:26.449Z,97052.50
2023-01-13T20:23:53.276Z,97045.91
2023-01-13T20:26:20.806Z,97058.81
2023-01-13T20:28:47.435Z,97066.44
2023-01-13T20:31:14.641Z,97072.47
2023-01-13T20:33:41.239Z,97066.75
2023-01-13T20:36:08.686Z,97069.63
2023-01-13T20:38:38.001Z,97073.63
2023-01-13T20:41:24.817Z,97073.06
2023-01-13T20:43:52.555Z,97070.31
2023-01-13T20:46:19.539Z,97071.19
2023-01-13T20:48:46.056Z,97057.88
2023-01-13T20:51:12.431Z,97068.00
2023-01-13T20:53:38.817Z,97067.25
2023-01-13T20:56:06.781Z,97062.19
2023-01-13T20:58:33.190Z,97063.19
2023-01-13T21:01:00.175Z,97069.94
2023-01-13T21:03:26.917Z,97077.47
2023-01-13T21:05:53.258Z,97080.34
2023-01-13T21:08:19.596Z,97079.63
2023-01-13T21:10:45.933Z,97077.25
2023-01-13T21:13:31.682Z,97075.13
2023-01-13T21:15:58.245Z,97073.28
2023-01-13T21:18:43.264Z,97067.91
2023-01-13T21:21:12.378Z,97052.28
2023-01-13T21:23:40.973Z,97065.66
2023-01-13T21:26:08.162Z,97066.19
2023-01-13T21:28:36.383Z,97060.75
2023-01-13T21:31:07.381Z,97064.59
2023-01-13T21:33:34.167Z,97066.03
2023-01-13T21:36:08.669Z,97067.59
2023-01-13T21:38:35.297Z,97069.75
2023-01-13T21:41:05.445Z,97075.56
2023-01-13T21:43:55.779Z,97077.28
2023-01-13T21:46:42.453Z,97075.56
2023-01-13T21:49:08.959Z,97079.53
2023-01-13T21:51:35.976Z,97082.78
2023-01-13T21:54:02.375Z,97079.88
2023-01-13T21:56:28.727Z,97086.66
2023-01-13T21:58:57.823Z,97076.13
2023-01-13T22:01:24.251Z,97080.63
2023-01-13T22:04:09.196Z,97086.28
2023-01-13T22:06:35.574Z,97078.53
2023-01-13T22:09:03.727Z,97084.91
2023-01-13T22:11:31.789Z,97090.59
2023-01-13T22:14:06.467Z,97097.47
2023-01-13T22:16:41.957Z,97102.50
2023-01-13T22:19:09.984Z,97107.88
2023-01-13T22:21:36.766Z,97111.03
2023-01-13T22:24:03.430Z,97117.75
2023-01-13T22:26:29.806Z,97123.31
2023-01-13T22:28:56.190Z,97115.31
2023-01-13T22:31:23.666Z,97123.59
2023-01-13T22:33:56.131Z,97130.03
2023-01-13T22:36:26.139Z,97124.25
2023-01-13T22:38:55.159Z,97125.38
2023-01-13T22:41:22.146Z,97126.47
2023-01-13T22:43:48.613Z,97131.50
2023-01-13T22:46:15.063Z,97132.78
2023-01-13T22:48:41.576Z,97119.06
2023-01-13T22:51:13.572Z,97123.16
2023-01-13T22:53:41.331Z,97131.31
2023-01-13T22:56:09.746Z,97135.22
2023-01-13T22:58:36.132Z,97131.31
2023-01-13T23:01:10.772Z,97130.75
2023-01-13T23:03:37.364Z,97138.38
2023-01-13T23:06:04.587Z,97126.47
2023-01-13T23:08:31.227Z,97127.78
2023-01-13T23:11:03.182Z,97132.25
2023-01-13T23:13:29.705Z,97131.88
2023-01-13T23:16:00.634Z,97127.22
2023-01-13T23:18:27.049Z,97120.63
2023-01-13T23:20:53.461Z,97115.63
2023-01-13T23:23:20.207Z,97112.56
2023-01-13T23:25:55.262Z,97104.19
2023-01-13T23:28:22.296Z,97114.84
2023-01-13T23:30:49.634Z,97100.63
2023-01-13T23:33:15.991Z,97101.78
2023-01-13T23:35:42.303Z,97110.50
2023-01-13T23:38:09.025Z,97106.22
2023-01-13T23:40:35.592Z,97111.63
2023-01-13T23:43:01.916Z,97110.13
2023-01-13T23:45:28.237Z,97108.47
2023-01-13T23:47:55.732Z,97116.63
2023-01-13T23:50:22.070Z,97099.91
2023-01-13T23:52:48.512Z,97096.34
2023-01-13T23:55:14.960Z,97104.88
2023-01-13T23:57:42.681Z,97103.31
